Trebloc, Mississippi
Current Conditions -  °F | °C
As of 6:55 PM on Friday 19 Dec 2014 (Local Time) from KM40 Reporting Station
Drizzle Drizzle  
Wind Chill: 45°   Ceiling: 4500
Heat Index: 45°   Visibility: 4mi
Dew Point: 32°   Wind: 0mph
Humidity: 61%   Direction: NA
Pressure: 30.21"   Gusts: NA
Location:  33.84°N, 88.83°W
Report Text: KM40 200055Z AUTO 00000KT 4SM -DZ FEW002 SCT032 BKN045 07/00 A3021 RMK AO2
Loading
Personal Weather Stations






























Interactive Weather Map New forecast layout! Learn more

10-Day Weather Forecast

Advertisements
Track Severe Weather on mobile